KEVW Airport (Evanston-Uinta County Burns Field) Information

FAA: EVW - ICAO: KEVW

KEVW Airport Location

State Wyoming
County Uinta
City Evanston
KEVW Airport is 3 miles west of Evanston, WY.
Latitude 41-16-29.2000N
Longitude 111-02-04.7000W
Elevation 7,142ft

KEVW Airport METARs

METAR KEVW 182353Z AUTO 23025G34KT 10SM BKN065 OVC080 06/M01 A2979 RMK AO2 PK WND 22034/2351 SLP052 T00611011 10122 20061 53003
Altimeter 29.79"
Temperature 6.1°C (43.0°F)
Wind 230° at 25KT with gusts to 34KT
Clouds broken at 6,500ft overcast at 8,000ft
Visibility 10.0mi
Time observed: 2021-10-18T23:53:00Z

KEVW Airport Details

Status Operational
Activation March 1985
Ownership Public
Usage Public
Chart SALT LAKE CITY
ATC on-site No
Beacon schedule sunset-sunrise
Beacon color clear green

KEVW Airport Contacts

Owner CITY OF EVANSTON
Owner address 1200 MAIN ST, EVANSTON, WY 82930
Owner phone (307) 783-0318
Manager ANDREW BUSSE
Manager address 1818 W FULTON STE 101, RAPID CITY, SD 57702
Manager phone 605 431 3286

KEVW Airport (Evanston-Uinta County Burns Field) Radio Frequencies

KEVW (Airport) Radio Frequencies

UNICOM 123
Common traffic advisory frequency (CTAF) 123